Time;durP1;ratioP1;P1;durP2;ratioP2;P2;SDS_P1;SDS_P2;PMS_P1;PMS_P2;Temp;Humidity;BMP_temperature;BMP_pressure;BME280_temperature;BME280_humidity;BME280_pressure;Samples;Min_cycle;Max_cycle;Signal;HPM_P1;HPM_P2
2021/07/19 00:00:51;;;;;;;5.80;4.10;;;589.40;2176.00;;;;;;5097546;28;20032;-55
2021/07/19 00:03:17;;;;;;;4.78;4.25;;;589.30;2176.00;;;;;;5096343;28;20469;-51
2021/07/19 00:05:43;;;;;;;4.82;3.95;;;589.30;2201.60;;;;;;5096262;28;20058;-51
2021/07/19 00:08:09;;;;;;;4.07;3.67;;;589.30;2201.60;;;;;;5096604;28;20020;-51
2021/07/19 00:10:34;;;;;;;4.38;3.60;;;589.20;2201.60;;;;;;5096133;28;20488;-55
2021/07/19 00:13:00;;;;;;;3.92;3.45;;;589.20;2201.60;;;;;;5096451;28;20048;-51
2021/07/19 00:15:28;;;;;;;4.63;3.78;;;589.20;2201.60;;;;;;5096345;28;20468;-51
2021/07/19 00:17:55;;;;;;;3.60;3.28;;;589.20;2227.20;;;;;;5096430;28;20504;-51
2021/07/19 00:20:21;;;;;;;4.25;2.88;;;589.10;2227.20;;;;;;5096338;28;20028;-55
2021/07/19 00:22:48;;;;;;;3.38;3.00;;;589.10;2227.20;;;;;;5096010;28;20020;-52
2021/07/19 00:25:17;;;;;;;3.72;3.10;;;589.20;2227.20;;;;;;5096798;28;20024;-51
2021/07/19 00:27:44;;;;;;;3.63;2.95;;;589.10;2227.20;;;;;;5095686;28;20076;-51
2021/07/19 00:30:13;;;;;;;5.20;3.33;;;589.10;2227.20;;;;;;5095793;28;20039;-51
2021/07/19 00:32:40;;;;;;;3.33;3.00;;;589.10;2227.20;;;;;;5095879;28;20039;-51
2021/07/19 00:35:07;;;;;;;4.30;2.95;;;589.10;2227.20;;;;;;5096093;28;20047;-51
2021/07/19 00:37:34;;;;;;;2.88;2.58;;;589.10;2227.20;;;;;;5095932;28;20032;-52
2021/07/19 00:40:06;;;;;;;3.38;2.85;;;589.10;2227.20;;;;;;5095774;28;20024;-52
2021/07/19 00:42:32;;;;;;;2.53;2.22;;;589.10;2201.60;;;;;;5095839;28;20028;-55
2021/07/19 00:44:58;;;;;;;4.78;2.45;;;589.10;2201.60;;;;;;5095525;28;20097;-51
2021/07/19 00:47:24;;;;;;;2.90;2.55;;;589.00;2227.20;;;;;;5095562;28;20052;-51
2021/07/19 00:49:50;;;;;;;2.95;2.35;;;589.00;2227.20;;;;;;5095355;28;20476;-51
2021/07/19 00:52:16;;;;;;;5.13;2.75;;;589.00;2227.20;;;;;;5095754;28;20115;-51
2021/07/19 00:54:45;;;;;;;3.67;2.38;;;589.00;2252.80;;;;;;5095335;28;20465;-55
2021/07/19 00:57:13;;;;;;;3.45;2.53;;;588.90;2252.80;;;;;;5095337;28;20396;-51
2021/07/19 00:59:41;;;;;;;3.35;2.50;;;588.80;2252.80;;;;;;5095291;28;20468;-51
2021/07/19 01:02:08;;;;;;;2.85;2.05;;;588.80;2252.80;;;;;;5095275;28;20146;-51
2021/07/19 01:04:34;;;;;;;4.03;2.05;;;588.80;2252.80;;;;;;5095502;28;20055;-51
2021/07/19 01:07:04;;;;;;;3.28;2.00;;;588.80;2252.80;;;;;;5095150;28;20480;-51
2021/07/19 01:09:31;;;;;;;4.22;2.20;;;564.10;2252.80;;;;;;5095339;28;20393;-51
2021/07/19 01:12:00;;;;;;;2.85;2.20;;;564.10;2252.80;;;;;;5095024;28;20081;-51
2021/07/19 01:14:26;;;;;;;3.72;2.10;;;564.00;2278.40;;;;;;5095007;28;20020;-52
2021/07/19 01:16:53;;;;;;;4.72;2.08;;;564.00;2278.40;;;;;;5095224;28;20452;-51
2021/07/19 01:19:21;;;;;;;2.20;1.80;;;563.90;2278.40;;;;;;5094885;28;20052;-55
2021/07/19 01:22:33;;;;;;;4.28;2.10;;;564.00;2278.40;;;;;;5094873;28;20032;-56
2021/07/19 01:25:14;;;;;;;2.67;1.90;;;563.80;2278.40;;;;;;5095172;28;20070;-51
2021/07/19 01:28:00;;;;;;;3.22;1.92;;;563.90;2278.40;;;;;;5094597;28;20162;-51
2021/07/19 01:30:29;;;;;;;2.85;2.05;;;563.90;2278.40;;;;;;5094985;28;20031;-51
2021/07/19 01:32:59;;;;;;;2.05;1.77;;;564.00;2252.80;;;;;;5094980;28;20020;-50
2021/07/19 01:35:26;;;;;;;3.25;1.80;;;564.00;2252.80;;;;;;5094866;28;20020;-51
2021/07/19 01:37:53;;;;;;;2.45;1.90;;;564.00;2252.80;;;;;;5094591;28;20070;-50
2021/07/19 01:40:21;;;;;;;3.53;2.03;;;563.90;2252.80;;;;;;5094499;28;20530;-51
2021/07/19 01:42:48;;;;;;;2.70;2.05;;;563.80;2278.40;;;;;;5094473;28;20032;-51
2021/07/19 01:45:14;;;;;;;2.75;2.20;;;563.90;2252.80;;;;;;5094454;28;20502;-51
2021/07/19 01:47:40;;;;;;;3.15;2.15;;;564.00;2252.80;;;;;;5094962;28;20028;-50
2021/07/19 01:50:08;;;;;;;2.42;2.20;;;564.00;2252.80;;;;;;5094590;28;20032;-51
2021/07/19 01:52:35;;;;;;;2.15;1.90;;;564.10;2227.20;;;;;;5094035;28;20024;-53
2021/07/19 01:55:01;;;;;;;4.25;2.13;;;564.10;2227.20;;;;;;5094175;28;20365;-52
2021/07/19 01:57:28;;;;;;;2.63;1.95;;;564.10;2227.20;;;;;;5094510;28;20047;-52
2021/07/19 01:59:56;;;;;;;3.00;1.90;;;564.10;2227.20;;;;;;5094160;28;20049;-52
2021/07/19 02:02:22;;;;;;;2.35;1.88;;;564.10;2227.20;;;;;;5094109;28;20035;-52
2021/07/19 02:04:48;;;;;;;2.28;1.75;;;564.10;2227.20;;;;;;5094106;28;20054;-52
2021/07/19 02:07:17;;;;;;;5.22;2.00;;;564.10;2227.20;;;;;;5094033;28;20103;-50
2021/07/19 02:09:47;;;;;;;4.35;2.00;;;564.10;2227.20;;;;;;5094210;28;20031;-54
2021/07/19 02:12:13;;;;;;;4.82;2.20;;;588.80;2227.20;;;;;;5094306;28;20035;-51
2021/07/19 02:14:42;;;;;;;5.05;2.13;;;588.80;2227.20;;;;;;5093797;28;20020;-57
2021/07/19 02:17:10;;;;;;;2.75;2.03;;;588.80;2227.20;;;;;;5093757;28;20024;-51
2021/07/19 02:19:38;;;;;;;2.53;2.20;;;588.80;2227.20;;;;;;5094027;28;20026;-53
2021/07/19 02:22:05;;;;;;;2.38;2.17;;;588.90;2252.80;;;;;;5092440;28;20365;-53
2021/07/19 02:24:34;;;;;;;2.60;1.98;;;588.80;2227.20;;;;;;5093997;28;20054;-57
2021/07/19 02:27:00;;;;;;;3.45;2.13;;;588.80;2227.20;;;;;;5093605;28;20148;-52
2021/07/19 02:29:27;;;;;;;4.03;2.47;;;588.80;2227.20;;;;;;5094723;28;20348;-56
2021/07/19 02:31:53;;;;;;;4.47;2.47;;;588.80;2227.20;;;;;;5093780;28;20032;-53
2021/07/19 02:34:20;;;;;;;2.72;2.35;;;588.80;2227.20;;;;;;5093793;28;20051;-57
2021/07/19 02:36:49;;;;;;;3.40;2.38;;;588.80;2227.20;;;;;;5093655;28;20460;-57
2021/07/19 02:39:16;;;;;;;2.95;2.38;;;588.90;2227.20;;;;;;5093915;28;20032;-56
2021/07/19 02:41:44;;;;;;;3.17;2.30;;;588.90;2227.20;;;;;;5093620;28;20039;-56
2021/07/19 02:44:13;;;;;;;2.40;2.20;;;588.90;2227.20;;;;;;5093550;28;20017;-53
2021/07/19 02:46:40;;;;;;;3.65;2.60;;;588.90;2227.20;;;;;;5093562;28;20032;-56
2021/07/19 02:49:10;;;;;;;4.35;2.63;;;588.90;2227.20;;;;;;5093511;28;20016;-52
2021/07/19 02:51:38;;;;;;;3.03;2.65;;;589.00;2227.20;;;;;;5093447;28;20081;-52
2021/07/19 02:54:05;;;;;;;3.22;2.90;;;589.00;2201.60;;;;;;5093453;28;20027;-52
2021/07/19 02:56:35;;;;;;;3.65;2.40;;;589.00;2201.60;;;;;;5093452;28;20029;-52
2021/07/19 02:59:02;;;;;;;3.33;2.20;;;589.00;2201.60;;;;;;5093428;28;20411;-52
2021/07/19 03:01:31;;;;;;;3.13;2.83;;;589.00;2201.60;;;;;;5093392;28;20044;-52
2021/07/19 03:04:00;;;;;;;3.35;2.85;;;589.00;2201.60;;;;;;5093647;28;20020;-52
2021/07/19 03:06:31;;;;;;;3.00;2.30;;;589.00;2201.60;;;;;;5097836;28;20160;-52
2021/07/19 03:09:00;;;;;;;3.38;2.35;;;589.00;2201.60;;;;;;5097740;28;20024;-56
2021/07/19 03:11:33;;;;;;;2.90;2.50;;;588.90;2201.60;;;;;;5097401;28;20032;-52
2021/07/19 03:14:01;;;;;;;2.95;2.60;;;588.90;2201.60;;;;;;5097434;28;20056;-57
2021/07/19 03:16:28;;;;;;;3.05;2.67;;;588.90;2201.60;;;;;;5097252;28;20032;-56
2021/07/19 03:18:58;;;;;;;5.15;3.03;;;588.90;2227.20;;;;;;5097493;28;20024;-56
2021/07/19 03:21:25;;;;;;;3.92;2.83;;;588.90;2201.60;;;;;;5097247;28;20067;-52
2021/07/19 03:23:54;;;;;;;3.80;2.97;;;588.90;2227.20;;;;;;5097206;28;20024;-53
2021/07/19 03:26:21;;;;;;;6.15;3.08;;;589.00;2201.60;;;;;;5097207;28;20040;-57
2021/07/19 03:28:48;;;;;;;4.20;3.03;;;589.00;2201.60;;;;;;5097098;28;20035;-52
2021/07/19 03:31:15;;;;;;;3.42;3.00;;;589.00;2201.60;;;;;;5096971;28;20118;-52
2021/07/19 03:33:43;;;;;;;6.05;2.92;;;589.00;2201.60;;;;;;5097045;28;20028;-52
2021/07/19 03:36:13;;;;;;;4.93;2.78;;;588.90;2201.60;;;;;;5096880;28;20039;-52
2021/07/19 03:38:41;;;;;;;5.88;3.78;;;588.90;2201.60;;;;;;5095726;28;20020;-56
2021/07/19 03:41:08;;;;;;;4.88;3.38;;;588.90;2201.60;;;;;;5096838;28;20115;-52
2021/07/19 03:43:34;;;;;;;4.60;3.58;;;588.80;2227.20;;;;;;5096683;28;20472;-53
2021/07/19 03:46:02;;;;;;;3.50;3.05;;;588.80;2227.20;;;;;;5096610;28;20119;-56
2021/07/19 03:48:28;;;;;;;3.78;3.22;;;588.90;2227.20;;;;;;5096924;28;20031;-52
2021/07/19 03:50:55;;;;;;;4.25;3.63;;;588.90;2227.20;;;;;;5096524;28;20036;-52
2021/07/19 03:53:22;;;;;;;3.85;3.45;;;588.90;2227.20;;;;;;5096895;28;20070;-52
2021/07/19 03:55:49;;;;;;;4.15;3.28;;;588.90;2227.20;;;;;;5096406;28;20026;-57
2021/07/19 03:58:16;;;;;;;5.07;3.67;;;588.90;2227.20;;;;;;5097222;28;20109;-52
2021/07/19 04:00:42;;;;;;;6.85;3.50;;;589.00;2227.20;;;;;;5096344;28;20028;-55
2021/07/19 04:03:23;;;;;;;6.93;4.13;;;589.00;2227.20;;;;;;5096665;28;20043;-53
2021/07/19 04:05:56;;;;;;;6.68;3.63;;;589.00;2227.20;;;;;;5096391;28;20033;-52
2021/07/19 04:08:23;;;;;;;7.28;3.92;;;588.90;2227.20;;;;;;5096345;28;20559;-53
2021/07/19 04:10:51;;;;;;;4.25;3.85;;;588.90;2227.20;;;;;;5096149;28;20126;-52
2021/07/19 04:13:17;;;;;;;5.75;3.78;;;588.90;2252.80;;;;;;5096235;28;20020;-52
2021/07/19 04:15:49;;;;;;;5.10;3.65;;;589.00;2227.20;;;;;;5095559;28;20480;-52
2021/07/19 04:18:16;;;;;;;4.22;3.83;;;589.00;2227.20;;;;;;5095932;28;20024;-52
2021/07/19 04:20:44;;;;;;;5.20;4.30;;;588.90;2227.20;;;;;;5096128;28;20028;-56
2021/07/19 04:23:11;;;;;;;5.40;4.72;;;589.00;2227.20;;;;;;5096034;28;20487;-52
2021/07/19 04:25:39;;;;;;;4.18;3.78;;;589.00;2227.20;;;;;;5096022;28;20074;-52
2021/07/19 04:28:06;;;;;;;6.18;5.00;;;589.00;2227.20;;;;;;5095802;28;20044;-52
2021/07/19 04:30:36;;;;;;;6.82;4.10;;;589.00;2227.20;;;;;;5096207;28;20032;-52
2021/07/19 04:33:03;;;;;;;4.53;3.65;;;589.00;2227.20;;;;;;5096184;28;20020;-52
2021/07/19 04:35:29;;;;;;;6.22;4.00;;;589.00;2227.20;;;;;;5095794;28;20477;-52
2021/07/19 04:37:56;;;;;;;4.07;3.65;;;589.00;2227.20;;;;;;5096076;28;20055;-53
2021/07/19 04:40:25;;;;;;;4.55;3.83;;;589.00;2227.20;;;;;;5096054;28;20020;-52
2021/07/19 04:42:51;;;;;;;5.68;4.20;;;589.00;2227.20;;;;;;5095652;28;20077;-57
2021/07/19 04:45:19;;;;;;;6.57;4.13;;;589.00;2227.20;;;;;;5096711;28;20024;-52
2021/07/19 04:47:49;;;;;;;5.40;3.65;;;589.00;2227.20;;;;;;5095589;28;20028;-52
2021/07/19 04:50:17;;;;;;;3.92;3.50;;;588.90;2252.80;;;;;;5095766;28;20032;-52
2021/07/19 04:52:44;;;;;;;5.45;3.92;;;588.90;2252.80;;;;;;5095785;28;20127;-54
2021/07/19 04:55:12;;;;;;;4.30;3.40;;;589.00;2227.20;;;;;;5095403;28;20103;-52
2021/07/19 04:57:40;;;;;;;4.85;3.42;;;589.00;2252.80;;;;;;5095357;28;20028;-52
2021/07/19 05:00:07;;;;;;;5.45;3.50;;;589.00;2252.80;;;;;;5095312;28;20035;-52
2021/07/19 05:02:35;;;;;;;4.60;3.45;;;589.00;2227.20;;;;;;5095552;28;20035;-52
2021/07/19 05:05:02;;;;;;;8.05;3.65;;;589.00;2252.80;;;;;;5095253;28;20024;-52
2021/07/19 05:07:32;;;;;;;7.43;3.75;;;589.00;2252.80;;;;;;5095174;28;20055;-52
2021/07/19 05:10:01;;;;;;;4.97;3.88;;;589.00;2227.20;;;;;;5095365;28;20040;-52
2021/07/19 05:12:29;;;;;;;4.88;3.50;;;589.00;2252.80;;;;;;5095423;28;20024;-51
2021/07/19 05:14:56;;;;;;;4.80;4.10;;;589.00;2227.20;;;;;;5095060;28;20051;-52
2021/07/19 05:17:23;;;;;;;6.30;3.40;;;589.00;2227.20;;;;;;5095262;28;20028;-52
2021/07/19 05:19:49;;;;;;;5.00;3.25;;;589.00;2227.20;;;;;;5094992;28;20557;-51
2021/07/19 05:22:16;;;;;;;6.47;3.50;;;589.00;2227.20;;;;;;5095141;28;20103;-51
2021/07/19 05:24:43;;;;;;;3.80;3.50;;;589.00;2252.80;;;;;;5094858;28;20039;-52
2021/07/19 05:27:11;;;;;;;6.88;4.80;;;589.00;2227.20;;;;;;5094481;28;20044;-52
2021/07/19 05:29:38;;;;;;;6.60;4.25;;;589.10;2227.20;;;;;;5094721;28;20028;-52
2021/07/19 05:32:07;;;;;;;6.40;4.00;;;589.10;2227.20;;;;;;5094648;28;20549;-51
2021/07/19 05:34:33;;;;;;;5.15;4.47;;;589.10;2252.80;;;;;;5094647;28;20065;-52
2021/07/19 05:36:59;;;;;;;6.07;4.55;;;589.10;2252.80;;;;;;5094951;28;20374;-52
2021/07/19 05:39:25;;;;;;;5.10;4.60;;;589.10;2227.20;;;;;;5094851;28;20024;-56
2021/07/19 05:41:51;;;;;;;5.47;4.93;;;589.20;2227.20;;;;;;5094782;28;20016;-57
2021/07/19 05:44:17;;;;;;;5.13;4.63;;;589.20;2227.20;;;;;;5094466;28;20051;-52
2021/07/19 05:46:43;;;;;;;6.28;4.70;;;589.20;2227.20;;;;;;5094095;28;20031;-52
2021/07/19 05:49:09;;;;;;;6.82;4.93;;;589.20;2252.80;;;;;;5094386;28;20460;-52
2021/07/19 05:51:35;;;;;;;5.32;4.28;;;589.20;2227.20;;;;;;5094256;28;20028;-51
2021/07/19 05:54:03;;;;;;;5.72;4.55;;;589.10;2227.20;;;;;;5094262;28;20027;-56
2021/07/19 05:56:31;;;;;;;5.50;5.00;;;589.10;2227.20;;;;;;5094561;28;20121;-52
2021/07/19 05:58:58;;;;;;;7.43;4.47;;;589.10;2227.20;;;;;;5094515;28;20024;-52
2021/07/19 06:01:24;;;;;;;6.53;4.38;;;589.10;2227.20;;;;;;5094479;28;20028;-51
2021/07/19 06:03:50;;;;;;;6.18;4.45;;;589.20;2227.20;;;;;;5093978;28;20504;-51
2021/07/19 06:06:16;;;;;;;9.43;4.95;;;589.20;2227.20;;;;;;5094407;28;20059;-52
2021/07/19 06:08:42;;;;;;;12.82;4.80;;;589.20;2227.20;;;;;;5094054;28;20028;-57
2021/07/19 06:11:08;;;;;;;5.38;4.40;;;589.20;2227.20;;;;;;5093950;28;20043;-51
2021/07/19 06:13:34;;;;;;;8.75;4.80;;;589.20;2227.20;;;;;;5094312;28;20028;-52
2021/07/19 06:16:00;;;;;;;8.15;5.45;;;589.20;2201.60;;;;;;5094279;28;20384;-52
2021/07/19 06:18:26;;;;;;;5.13;4.20;;;589.20;2227.20;;;;;;5093842;28;20026;-52
2021/07/19 06:20:52;;;;;;;5.70;4.40;;;589.20;2227.20;;;;;;5093965;28;20116;-52
2021/07/19 06:23:18;;;;;;;7.85;4.47;;;589.10;2227.20;;;;;;5093786;28;20476;-51
2021/07/19 06:25:44;;;;;;;6.30;4.43;;;589.10;2227.20;;;;;;5094095;28;20077;-56
2021/07/19 06:28:10;;;;;;;6.03;4.38;;;589.10;2227.20;;;;;;5093525;28;20459;-52
2021/07/19 06:30:36;;;;;;;8.23;4.80;;;589.10;2252.80;;;;;;5093948;28;20388;-51
2021/07/19 06:33:04;;;;;;;5.38;4.40;;;589.10;2252.80;;;;;;5093712;28;20020;-52
2021/07/19 06:35:31;;;;;;;8.00;5.03;;;589.10;2227.20;;;;;;5093650;28;20388;-52
2021/07/19 06:37:57;;;;;;;5.75;4.80;;;589.10;2252.80;;;;;;5093965;28;20024;-52
2021/07/19 06:40:23;;;;;;;8.82;5.25;;;589.10;2227.20;;;;;;5092978;28;20537;-52
2021/07/19 06:42:50;;;;;;;10.05;5.60;;;589.10;2227.20;;;;;;5093952;28;20024;-56
2021/07/19 06:45:16;;;;;;;12.77;8.18;;;589.20;2227.20;;;;;;5093560;28;20031;-51
2021/07/19 06:47:43;;;;;;;16.90;8.32;;;589.20;2227.20;;;;;;5093837;28;20032;-56
2021/07/19 06:50:11;;;;;;;16.73;9.45;;;589.20;2227.20;;;;;;5093391;28;20114;-52
2021/07/19 06:52:38;;;;;;;14.65;9.80;;;589.20;2201.60;;;;;;5093765;28;20051;-52
2021/07/19 06:55:06;;;;;;;22.83;10.02;;;589.20;2227.20;;;;;;5093573;28;20017;-52
2021/07/19 06:57:32;;;;;;;17.45;8.93;;;589.20;2227.20;;;;;;5093369;28;20024;-51
2021/07/19 06:59:59;;;;;;;13.98;7.75;;;589.20;2227.20;;;;;;5093396;28;20035;-52
2021/07/19 07:02:25;;;;;;;8.70;6.90;;;589.20;2201.60;;;;;;5093420;28;20017;-51
2021/07/19 07:04:51;;;;;;;8.02;6.25;;;589.30;2201.60;;;;;;5093358;28;20024;-57
2021/07/19 07:07:17;;;;;;;8.60;6.50;;;589.30;2201.60;;;;;;5093348;28;20024;-52
2021/07/19 07:09:43;;;;;;;7.22;5.93;;;589.30;2201.60;;;;;;5093566;28;20051;-54
2021/07/19 07:12:09;;;;;;;8.27;5.70;;;589.30;2201.60;;;;;;5093307;28;20111;-52
2021/07/19 07:14:35;;;;;;;7.80;5.85;;;589.40;2201.60;;;;;;5093625;28;20034;-51
2021/07/19 07:17:01;;;;;;;7.25;5.85;;;589.30;2176.00;;;;;;5093217;28;20028;-52
2021/07/19 07:19:27;;;;;;;9.10;6.53;;;589.40;2201.60;;;;;;5093175;28;20024;-51
2021/07/19 07:21:53;;;;;;;6.47;5.35;;;589.40;2201.60;;;;;;5093153;28;20369;-55
2021/07/19 07:24:19;;;;;;;10.05;5.95;;;589.40;2201.60;;;;;;5093161;28;20055;-56
2021/07/19 07:26:45;;;;;;;6.93;5.85;;;589.40;2201.60;;;;;;5093001;28;20048;-51
2021/07/19 07:29:11;;;;;;;7.30;5.93;;;589.40;2176.00;;;;;;5093109;28;20040;-56
2021/07/19 07:31:37;;;;;;;11.05;7.00;;;589.40;2201.60;;;;;;5092746;28;20036;-56
2021/07/19 07:34:05;;;;;;;7.82;6.07;;;589.40;2201.60;;;;;;5092958;28;20077;-52
2021/07/19 07:36:33;;;;;;;7.88;5.85;;;589.40;2201.60;;;;;;5093025;28;20107;-52
2021/07/19 07:39:01;;;;;;;9.95;6.35;;;589.40;2176.00;;;;;;5092426;28;20070;-56
2021/07/19 07:41:29;;;;;;;9.00;6.30;;;589.40;2201.60;;;;;;5093149;28;20106;-53
2021/07/19 07:43:55;;;;;;;10.90;6.05;;;589.40;2201.60;;;;;;5092985;28;20473;-52
2021/07/19 07:46:23;;;;;;;7.00;6.30;;;589.40;2201.60;;;;;;5092677;28;20032;-52
2021/07/19 07:48:52;;;;;;;10.35;6.80;;;589.40;2201.60;;;;;;5092497;28;20012;-53
2021/07/19 07:51:18;;;;;;;10.55;6.10;;;589.50;2201.60;;;;;;5092438;28;20028;-56
2021/07/19 07:53:44;;;;;;;9.20;5.90;;;589.50;2201.60;;;;;;5096219;28;20044;-55
2021/07/19 07:56:10;;;;;;;8.98;6.57;;;589.40;2201.60;;;;;;5096365;28;20126;-57
2021/07/19 07:58:38;;;;;;;10.15;6.20;;;589.50;2201.60;;;;;;5096051;28;20460;-57
2021/07/19 08:01:04;;;;;;;7.53;6.18;;;589.50;2176.00;;;;;;5096444;28;20078;-52
2021/07/19 08:03:30;;;;;;;9.45;5.68;;;589.50;2201.60;;;;;;5096364;28;20030;-52
2021/07/19 08:05:56;;;;;;;9.57;6.57;;;589.50;2201.60;;;;;;5096444;28;20028;-53
2021/07/19 08:08:22;;;;;;;9.52;6.15;;;589.50;2176.00;;;;;;5096592;28;20084;-57
2021/07/19 08:10:48;;;;;;;6.93;6.22;;;589.50;2176.00;;;;;;5095910;28;20028;-57
2021/07/19 08:13:14;;;;;;;6.90;6.20;;;589.50;2176.00;;;;;;5095589;28;20030;-57
2021/07/19 08:15:40;;;;;;;11.55;6.90;;;589.50;2176.00;;;;;;5095656;28;20020;-53
2021/07/19 08:18:06;;;;;;;7.43;5.90;;;589.50;2176.00;;;;;;5095988;28;20028;-52
2021/07/19 08:20:32;;;;;;;8.55;6.38;;;589.50;2176.00;;;;;;5095861;28;20039;-52
2021/07/19 08:22:58;;;;;;;8.48;6.53;;;589.50;2201.60;;;;;;5096302;28;20107;-52
2021/07/19 08:25:24;;;;;;;8.35;6.57;;;589.50;2176.00;;;;;;5096062;28;20020;-52
2021/07/19 08:27:50;;;;;;;8.55;7.32;;;589.50;2176.00;;;;;;5095817;28;20048;-52
2021/07/19 08:30:17;;;;;;;8.70;7.03;;;589.50;2201.60;;;;;;5095838;28;20493;-52
2021/07/19 08:32:45;;;;;;;9.35;7.05;;;589.50;2176.00;;;;;;5095891;28;20499;-53
2021/07/19 08:35:12;;;;;;;9.25;6.50;;;589.50;2201.60;;;;;;5095907;28;20023;-52
2021/07/19 08:37:44;;;;;;;12.75;7.10;;;589.60;2176.00;;;;;;5094925;28;20107;-52
2021/07/19 08:40:11;;;;;;;12.70;7.40;;;589.50;2176.00;;;;;;5095793;28;20020;-57
2021/07/19 08:42:39;;;;;;;8.27;7.40;;;589.50;2201.60;;;;;;5095837;28;20036;-53
2021/07/19 08:45:07;;;;;;;10.40;6.15;;;589.50;2176.00;;;;;;5094293;28;20028;-52
2021/07/19 08:47:37;;;;;;;12.02;6.35;;;589.50;2176.00;;;;;;5094959;28;20032;-52
2021/07/19 08:50:06;;;;;;;12.80;7.10;;;589.50;2176.00;;;;;;5094583;28;20046;-52
2021/07/19 08:52:33;;;;;;;8.57;6.70;;;589.50;2176.00;;;;;;5095355;28;20111;-52
2021/07/19 08:55:00;;;;;;;9.05;6.35;;;589.50;2176.00;;;;;;5095720;28;20444;-52
2021/07/19 08:57:27;;;;;;;10.45;6.53;;;589.60;2176.00;;;;;;5095198;28;20423;-51
2021/07/19 08:59:54;;;;;;;8.35;6.90;;;589.60;2176.00;;;;;;5095406;28;20035;-51
2021/07/19 09:02:20;;;;;;;9.90;6.07;;;589.60;2176.00;;;;;;5095071;28;20032;-52
2021/07/19 09:04:46;;;;;;;10.38;6.47;;;589.60;2176.00;;;;;;5094531;28;20050;-52
2021/07/19 09:07:12;;;;;;;10.95;7.32;;;589.60;2176.00;;;;;;5094623;28;20020;-53
2021/07/19 09:09:38;;;;;;;9.38;6.43;;;589.60;2176.00;;;;;;5094775;28;20068;-50
2021/07/19 09:12:05;;;;;;;8.70;6.57;;;589.60;2176.00;;;;;;5094538;28;20055;-51
2021/07/19 09:14:32;;;;;;;8.55;7.65;;;589.60;2176.00;;;;;;5094642;28;20024;-51
2021/07/19 09:16:58;;;;;;;8.65;7.03;;;589.60;2201.60;;;;;;5094313;28;20123;-51
2021/07/19 09:19:26;;;;;;;8.80;8.00;;;589.60;2176.00;;;;;;5094410;28;20024;-52
2021/07/19 09:22:10;;;;;;;10.18;7.70;;;589.60;2201.60;;;;;;5094690;28;20384;-51
2021/07/19 09:24:37;;;;;;;9.00;7.15;;;589.60;2176.00;;;;;;5093674;28;20032;-55
2021/07/19 09:27:03;;;;;;;7.82;7.00;;;589.60;2176.00;;;;;;5094045;28;20048;-51
2021/07/19 09:29:36;;;;;;;9.77;7.32;;;589.60;2201.60;;;;;;5094547;28;20081;-50
2021/07/19 09:32:02;;;;;;;10.35;7.60;;;589.60;2201.60;;;;;;5094553;28;20042;-55
2021/07/19 09:34:31;;;;;;;8.70;7.80;;;589.70;2201.60;;;;;;5094611;28;20531;-51
2021/07/19 09:37:02;;;;;;;11.75;8.00;;;589.70;2176.00;;;;;;5094550;28;20031;-51
2021/07/19 09:39:30;;;;;;;11.07;7.47;;;589.70;2176.00;;;;;;5093947;28;20024;-52
2021/07/19 09:42:17;;;;;;;14.95;8.93;;;589.70;2176.00;;;;;;5094400;28;20447;-52
2021/07/19 09:44:51;;;;;;;12.65;7.50;;;614.40;2176.00;;;;;;5094338;28;20032;-56
2021/07/19 09:47:17;;;;;;;12.93;9.20;;;614.40;2201.60;;;;;;5094409;28;20038;-56
2021/07/19 09:49:43;;;;;;;10.95;7.82;;;614.40;2201.60;;;;;;5094059;28;20144;-56
2021/07/19 09:52:12;;;;;;;10.75;8.23;;;614.40;2176.00;;;;;;5093769;28;20090;-57
2021/07/19 09:54:40;;;;;;;8.75;7.75;;;614.40;2176.00;;;;;;5093042;28;20042;-53
2021/07/19 09:57:07;;;;;;;12.57;8.15;;;614.50;2150.40;;;;;;5094026;28;20024;-53
2021/07/19 09:59:36;;;;;;;12.05;7.80;;;614.40;2176.00;;;;;;5094511;28;20227;-57
2021/07/19 10:02:02;;;;;;;8.60;7.80;;;614.50;2176.00;;;;;;5094096;28;20028;-52
2021/07/19 10:04:28;;;;;;;12.13;9.38;;;614.50;2176.00;;;;;;5093685;28;20081;-52
2021/07/19 10:06:55;;;;;;;14.43;8.75;;;614.50;2176.00;;;;;;5093591;28;20012;-51
2021/07/19 10:09:22;;;;;;;12.88;8.80;;;614.60;2176.00;;;;;;5093866;28;20036;-50
2021/07/19 10:11:51;;;;;;;14.13;8.32;;;614.70;2176.00;;;;;;5094211;28;20389;-51
2021/07/19 10:14:31;;;;;;;10.85;7.75;;;614.70;2176.00;;;;;;5092860;28;20496;-52
2021/07/19 10:16:58;;;;;;;10.88;9.48;;;614.70;2150.40;;;;;;5092224;28;20495;-51
2021/07/19 10:19:25;;;;;;;8.98;8.10;;;614.70;2150.40;;;;;;5092966;28;20484;-53
2021/07/19 10:21:53;;;;;;;10.52;9.52;;;614.70;2150.40;;;;;;5087839;28;20043;-53
2021/07/19 10:24:20;;;;;;;20.48;15.40;;;614.80;2176.00;;;;;;5093205;28;20149;-51
2021/07/19 10:26:47;;;;;;;19.38;13.70;;;614.80;2150.40;;;;;;5092892;28;20141;-52
2021/07/19 10:29:15;;;;;;;17.67;15.93;;;614.90;2176.00;;;;;;5093039;28;20024;-54
2021/07/19 10:31:42;;;;;;;14.30;10.63;;;614.90;2176.00;;;;;;5093668;28;20039;-50
2021/07/19 10:34:11;;;;;;;13.45;9.35;;;614.90;2176.00;;;;;;5093108;28;20072;-56
2021/07/19 10:37:00;;;;;;;14.10;9.63;;;614.90;2150.40;;;;;;5093556;28;20377;-51
2021/07/19 10:39:36;;;;;;;10.05;8.40;;;614.90;2176.00;;;;;;5073391;28;20025;-51
2021/07/19 10:42:11;;;;;;;12.82;9.90;;;615.10;2124.80;;;;;;5073468;28;20028;-56
2021/07/19 10:44:39;;;;;;;10.55;9.45;;;615.10;2124.80;;;;;;5083581;28;20050;-51
2021/07/19 10:47:22;;;;;;;11.02;10.00;;;615.10;2124.80;;;;;;5093718;28;20024;-50
2021/07/19 10:50:04;;;;;;;11.80;9.70;;;615.10;2124.80;;;;;;5093549;28;20024;-50
2021/07/19 10:52:30;;;;;;;11.82;9.30;;;615.20;2124.80;;;;;;5093432;28;20044;-51
2021/07/19 10:54:56;;;;;;;10.07;9.18;;;615.20;2150.40;;;;;;5093797;28;20028;-51
2021/07/19 10:57:34;;;;;;;12.90;9.10;;;615.20;2124.80;;;;;;5093335;28;20034;-50
2021/07/19 11:00:09;;;;;;;11.43;9.23;;;615.20;2124.80;;;;;;5088030;28;20035;-50
2021/07/19 11:02:35;;;;;;;10.40;9.25;;;615.20;2124.80;;;;;;5093345;28;20111;-64
2021/07/19 11:05:01;;;;;;;13.52;9.73;;;615.20;2150.40;;;;;;5093448;28;20029;-58
2021/07/19 11:07:42;;;;;;;11.45;8.82;;;615.30;2124.80;;;;;;5091993;28;20035;-58
2021/07/19 11:10:18;;;;;;;11.50;9.35;;;615.30;2124.80;;;;;;5091754;28;20095;-58
2021/07/19 11:12:52;;;;;;;14.68;10.77;;;615.30;2099.20;;;;;;5093310;28;20038;-59
2021/07/19 11:15:21;;;;;;;14.68;9.45;;;640.00;2099.20;;;;;;5093970;28;20381;-57
2021/07/19 11:17:48;;;;;;;12.23;10.48;;;640.00;2124.80;;;;;;5092902;28;20031;-57
2021/07/19 11:20:15;;;;;;;10.70;9.60;;;640.00;2099.20;;;;;;5093349;28;20073;-58
2021/07/19 11:22:43;;;;;;;9.98;9.05;;;640.10;2099.20;;;;;;5092804;28;20024;-70
2021/07/19 11:25:15;;;;;;;16.23;9.68;;;640.10;2099.20;;;;;;5093505;28;20032;-72
2021/07/19 11:27:45;;;;;;;12.05;9.23;;;640.10;2099.20;;;;;;5086685;28;20093;-70
2021/07/19 11:30:17;;;;;;;11.68;9.73;;;640.00;2099.20;;;;;;5097071;28;20388;-68
2021/07/19 11:32:43;;;;;;;12.05;9.73;;;640.10;2124.80;;;;;;5096759;28;20060;-64
2021/07/19 11:35:15;;;;;;;16.75;9.35;;;640.10;2099.20;;;;;;5096621;28;20028;-56
2021/07/19 11:37:50;;;;;;;15.15;9.98;;;640.20;2099.20;;;;;;5096870;28;20423;-56
2021/07/19 11:40:32;;;;;;;9.95;8.95;;;640.20;2073.60;;;;;;5096731;28;20074;-57
2021/07/19 11:43:15;;;;;;;10.93;9.77;;;640.10;2099.20;;;;;;5096749;28;20078;-57
2021/07/19 11:45:43;;;;;;;15.25;9.68;;;640.20;2099.20;;;;;;5096989;28;20074;-70
2021/07/19 11:48:10;;;;;;;9.93;9.02;;;640.20;2099.20;;;;;;5096871;28;20024;-58
2021/07/19 11:50:37;;;;;;;10.10;8.80;;;640.20;2073.60;;;;;;5096447;28;20531;-57
2021/07/19 11:53:03;;;;;;;11.68;9.20;;;640.20;2099.20;;;;;;5096588;28;20032;-70
2021/07/19 11:55:29;;;;;;;9.98;8.80;;;640.30;2073.60;;;;;;5096580;28;20116;-71
2021/07/19 11:58:01;;;;;;;11.43;8.45;;;640.30;2073.60;;;;;;5096270;28;20020;-58
2021/07/19 12:00:32;;;;;;;11.15;8.85;;;640.30;2073.60;;;;;;5096145;28;20020;-57
2021/07/19 12:03:06;;;;;;;10.40;9.40;;;640.30;2073.60;;;;;;5096356;28;20030;-57
2021/07/19 12:05:33;;;;;;;12.68;10.30;;;640.30;2073.60;;;;;;5096248;28;20020;-68
2021/07/19 12:08:00;;;;;;;14.20;8.90;;;640.40;2099.20;;;;;;5096404;28;20557;-69
2021/07/19 12:10:26;;;;;;;14.00;9.02;;;640.40;2099.20;;;;;;5096179;28;20060;-56
2021/07/19 12:12:52;;;;;;;8.90;8.00;;;640.50;2073.60;;;;;;5096121;28;20036;-55
2021/07/19 12:15:18;;;;;;;13.48;8.90;;;640.50;2073.60;;;;;;5096138;28;20024;-56
2021/07/19 12:17:44;;;;;;;10.52;8.57;;;640.50;2073.60;;;;;;5095687;28;20052;-55